createdAt,value
2022-11-25T00:01:23.020Z,6.90
2022-11-25T00:03:51.094Z,6.90
2022-11-25T00:06:20.858Z,6.90
2022-11-25T00:08:50.759Z,6.80
2022-11-25T00:11:18.547Z,6.80
2022-11-25T00:13:47.154Z,6.80
2022-11-25T00:16:19.855Z,6.70
2022-11-25T00:18:52.058Z,6.70
2022-11-25T00:21:22.358Z,6.80
2022-11-25T00:23:53.334Z,6.70
2022-11-25T00:28:48.423Z,6.80
2022-11-25T00:31:21.670Z,6.80
2022-11-25T00:33:49.997Z,6.70
2022-11-25T00:36:17.914Z,6.80
2022-11-25T00:38:45.757Z,6.80
2022-11-25T00:41:32.264Z,6.90
2022-11-25T00:46:44.993Z,6.90
2022-11-25T00:51:39.174Z,6.90
2022-11-25T00:54:06.610Z,6.90
2022-11-25T00:56:33.606Z,6.90
2022-11-25T00:59:00.574Z,6.90
2022-11-25T01:01:27.577Z,7.00
2022-11-25T01:03:54.624Z,7.00
2022-11-25T01:06:22.141Z,7.20
2022-11-25T01:11:20.636Z,7.30
2022-11-25T01:13:48.511Z,7.30
2022-11-25T01:16:18.698Z,7.30
2022-11-25T01:18:47.370Z,7.30
2022-11-25T01:21:16.360Z,7.20
2022-11-25T01:23:46.620Z,7.00
2022-11-25T01:26:16.357Z,6.90
2022-11-25T01:31:22.910Z,6.80
2022-11-25T01:34:00.701Z,6.70
2022-11-25T01:36:28.645Z,6.60
2022-11-25T01:38:57.497Z,6.60
2022-11-25T01:41:26.108Z,6.60
2022-11-25T01:44:11.000Z,6.60
2022-11-25T01:46:53.064Z,6.50
2022-11-25T01:49:31.966Z,6.50
2022-11-25T01:52:01.836Z,6.50
2022-11-25T01:54:34.247Z,6.40
2022-11-25T01:57:08.739Z,6.40
2022-11-25T01:59:40.108Z,6.30
2022-11-25T02:04:36.040Z,6.40
2022-11-25T02:07:30.500Z,6.40
2022-11-25T02:09:58.505Z,6.50
2022-11-25T02:14:55.733Z,6.50
2022-11-25T02:17:23.194Z,6.60
2022-11-25T02:20:06.668Z,6.70
2022-11-25T02:23:01.751Z,6.70
2022-11-25T02:25:33.514Z,6.70
2022-11-25T02:28:23.781Z,6.70
2022-11-25T02:30:51.211Z,6.70
2022-11-25T02:33:19.545Z,6.70
2022-11-25T02:38:18.938Z,6.70
2022-11-25T02:41:07.584Z,6.70
2022-11-25T02:43:35.196Z,6.70
2022-11-25T02:46:24.528Z,6.80
2022-11-25T02:49:08.455Z,6.80
2022-11-25T02:51:36.817Z,6.80
2022-11-25T02:54:04.182Z,6.90
2022-11-25T02:56:34.290Z,6.90
2022-11-25T02:59:02.596Z,6.80
2022-11-25T03:01:31.643Z,6.80
2022-11-25T03:03:59.500Z,6.80
2022-11-25T03:06:29.035Z,6.90
2022-11-25T03:08:56.232Z,7.00
2022-11-25T03:11:46.676Z,7.00
2022-11-25T03:16:43.631Z,7.30
2022-11-25T03:19:10.694Z,7.30
2022-11-25T03:21:37.630Z,7.40
2022-11-25T03:24:05.002Z,7.40
2022-11-25T03:26:32.061Z,7.40
2022-11-25T03:28:58.964Z,7.50
2022-11-25T03:31:26.607Z,7.50
2022-11-25T03:33:55.211Z,7.40
2022-11-25T03:36:22.150Z,7.40
2022-11-25T03:38:49.066Z,7.40
2022-11-25T03:43:43.364Z,7.30
2022-11-25T03:46:10.351Z,7.20
2022-11-25T03:48:37.756Z,7.10
2022-11-25T03:51:05.135Z,7.10
2022-11-25T03:53:32.403Z,7.10
2022-11-25T03:56:01.954Z,7.10
2022-11-25T03:58:29.606Z,7.10
2022-11-25T04:01:01.272Z,7.10
2022-11-25T04:03:28.800Z,7.00
2022-11-25T04:05:55.827Z,7.00
2022-11-25T04:08:23.200Z,6.90
2022-11-25T04:10:51.474Z,6.90
2022-11-25T04:15:52.138Z,7.00
2022-11-25T04:20:51.742Z,7.00
2022-11-25T04:25:55.007Z,7.00
2022-11-25T04:28:27.335Z,7.00
2022-11-25T04:33:22.625Z,6.90
2022-11-25T04:35:49.537Z,6.90
2022-11-25T04:38:16.789Z,6.80
2022-11-25T04:43:14.000Z,6.60
2022-11-25T04:46:12.926Z,6.70
2022-11-25T04:58:46.656Z,6.60
2022-11-25T05:01:14.282Z,6.60
2022-11-25T05:03:54.445Z,6.60
2022-11-25T05:06:25.135Z,6.60
2022-11-25T05:08:54.169Z,6.60
2022-11-25T05:11:23.505Z,6.50
2022-11-25T05:16:19.000Z,6.40
2022-11-25T05:18:46.078Z,6.40
2022-11-25T05:23:42.545Z,6.50
2022-11-25T05:26:10.064Z,6.50
2022-11-25T05:33:39.356Z,6.80
2022-11-25T05:36:08.528Z,6.90
2022-11-25T05:38:46.624Z,6.90
2022-11-25T05:48:54.874Z,7.20
2022-11-25T05:51:22.681Z,7.20
2022-11-25T05:56:22.980Z,7.30
2022-11-25T05:58:56.229Z,7.20
2022-11-25T06:04:01.347Z,7.30
2022-11-25T06:13:56.303Z,7.40
2022-11-25T06:16:24.589Z,7.30
2022-11-25T06:19:05.612Z,7.40
2022-11-25T06:31:26.421Z,7.50
2022-11-25T06:34:03.059Z,7.50
2022-11-25T06:38:57.223Z,7.60
2022-11-25T06:41:24.211Z,7.60
2022-11-25T06:46:24.845Z,7.70
2022-11-25T06:48:53.782Z,7.60
2022-11-25T06:51:20.737Z,7.70
2022-11-25T06:56:18.238Z,7.70
2022-11-25T06:58:46.306Z,7.70
2022-11-25T07:01:23.506Z,7.70
2022-11-25T07:03:53.076Z,7.70
2022-11-25T07:06:20.886Z,7.70
2022-11-25T07:08:48.222Z,7.80
2022-11-25T07:11:22.878Z,7.80
2022-11-25T07:13:53.199Z,7.80
2022-11-25T07:16:20.008Z,7.70
2022-11-25T07:18:47.020Z,7.80
2022-11-25T07:21:19.223Z,7.80
2022-11-25T07:23:46.991Z,7.80
2022-11-25T07:26:38.292Z,7.80
2022-11-25T07:29:23.299Z,7.90
2022-11-25T07:31:55.010Z,7.80
2022-11-25T07:34:21.991Z,7.90
2022-11-25T07:36:50.482Z,7.90
2022-11-25T07:39:22.459Z,7.90
2022-11-25T07:41:50.954Z,8.00
2022-11-25T07:46:51.719Z,8.00
2022-11-25T07:49:21.685Z,8.00
2022-11-25T07:51:49.796Z,8.10
2022-11-25T07:54:17.659Z,8.10
2022-11-25T07:59:16.052Z,8.20
2022-11-25T08:04:19.467Z,8.20
2022-11-25T08:06:49.324Z,8.20
2022-11-25T08:09:19.433Z,8.10
2022-11-25T08:11:47.539Z,8.20
2022-11-25T08:16:42.385Z,8.20
2022-11-25T08:19:14.052Z,8.20
2022-11-25T08:21:41.764Z,8.20
2022-11-25T08:24:14.989Z,8.20
2022-11-25T08:26:41.879Z,8.30
2022-11-25T08:31:38.166Z,8.40
2022-11-25T08:34:07.295Z,8.30
2022-11-25T08:36:35.635Z,8.40
2022-11-25T08:39:29.001Z,8.40
2022-11-25T08:41:53.940Z,8.50
2022-11-25T08:44:20.902Z,8.50
2022-11-25T08:46:48.084Z,8.50
2022-11-25T08:49:17.342Z,8.60
2022-11-25T08:51:44.297Z,8.60
2022-11-25T08:54:11.330Z,8.70
2022-11-25T08:56:38.292Z,8.70
2022-11-25T08:59:05.638Z,8.70
2022-11-25T09:01:33.055Z,8.70
2022-11-25T09:04:00.870Z,8.80
2022-11-25T09:06:29.130Z,8.80
2022-11-25T09:08:58.279Z,8.80
2022-11-25T09:11:25.821Z,8.90
2022-11-25T09:16:21.040Z,8.90
2022-11-25T09:18:54.038Z,8.90
2022-11-25T09:23:54.650Z,8.90
2022-11-25T09:26:27.418Z,8.90
2022-11-25T09:31:22.722Z,9.00
2022-11-25T09:33:49.736Z,9.00
2022-11-25T09:36:17.873Z,9.00
2022-11-25T09:38:45.067Z,9.00
2022-11-25T09:41:55.906Z,9.00
2022-11-25T09:45:12.538Z,9.00
2022-11-25T09:48:26.870Z,9.10
2022-11-25T09:51:11.484Z,9.10
2022-11-25T09:53:54.838Z,9.10
2022-11-25T09:56:34.478Z,9.10
2022-11-25T09:59:16.382Z,9.10
2022-11-25T10:02:00.436Z,9.10
2022-11-25T10:04:33.428Z,9.10
2022-11-25T10:07:04.140Z,9.10
2022-11-25T10:09:35.896Z,9.10
2022-11-25T10:12:31.036Z,9.10
2022-11-25T10:15:03.789Z,9.10
2022-11-25T10:17:45.159Z,9.10
2022-11-25T10:20:25.758Z,9.10
2022-11-25T10:22:57.014Z,9.10
2022-11-25T10:25:28.053Z,9.10
2022-11-25T10:28:04.876Z,9.10
2022-11-25T10:33:18.284Z,9.10
2022-11-25T10:35:53.544Z,9.20
2022-11-25T10:38:42.083Z,9.20
2022-11-25T10:41:17.057Z,9.20
2022-11-25T10:43:46.621Z,9.20
2022-11-25T10:47:13.370Z,9.30
2022-11-25T10:50:05.436Z,9.20
2022-11-25T10:52:39.663Z,9.30
2022-11-25T10:55:21.740Z,9.30
2022-11-25T11:00:35.485Z,9.30
2022-11-25T11:03:23.209Z,9.30
2022-11-25T11:05:52.493Z,9.30
2022-11-25T11:11:08.106Z,9.30
2022-11-25T11:18:41.388Z,9.30
2022-11-25T11:21:28.705Z,9.30
2022-11-25T11:23:57.121Z,9.40
2022-11-25T11:28:59.743Z,9.40
2022-11-25T11:31:39.405Z,9.40
2022-11-25T11:34:18.815Z,9.40
2022-11-25T11:37:15.694Z,9.40
2022-11-25T11:40:00.300Z,9.10
2022-11-25T11:42:43.641Z,9.40
2022-11-25T11:50:29.879Z,9.50
2022-11-25T11:53:28.022Z,9.40
2022-11-25T11:56:34.907Z,9.40
2022-11-25T11:59:14.496Z,9.40
2022-11-25T12:02:34.316Z,9.40
2022-11-25T12:05:10.522Z,9.40
2022-11-25T12:07:40.709Z,9.50
2022-11-25T12:10:17.613Z,9.40
2022-11-25T12:15:36.320Z,9.40
2022-11-25T12:18:27.306Z,9.50
2022-11-25T12:20:59.730Z,9.50
2022-11-25T12:23:38.756Z,9.50
2022-11-25T12:26:14.844Z,9.40
2022-11-25T12:28:53.299Z,9.50
2022-11-25T12:31:50.510Z,9.50
2022-11-25T12:34:22.226Z,9.60
2022-11-25T12:39:34.272Z,9.60
2022-11-25T12:42:21.654Z,9.60
2022-11-25T12:45:01.552Z,9.80
2022-11-25T12:47:28.496Z,9.50
2022-11-25T12:49:57.316Z,9.50
2022-11-25T12:53:02.591Z,9.50
2022-11-25T12:55:31.955Z,9.50
2022-11-25T12:58:26.682Z,9.50
2022-11-25T13:01:15.584Z,9.60
2022-11-25T13:03:57.760Z,9.60
2022-11-25T13:06:50.901Z,9.60
2022-11-25T13:09:51.456Z,9.60
2022-11-25T13:15:16.909Z,9.70
2022-11-25T13:17:45.988Z,9.70
2022-11-25T13:20:33.935Z,9.60
2022-11-25T13:23:10.527Z,9.70
2022-11-25T13:25:39.893Z,9.70
2022-11-25T13:28:36.987Z,9.80
2022-11-25T13:31:23.998Z,9.80
2022-11-25T13:33:59.881Z,9.80
2022-11-25T13:39:34.802Z,9.80
2022-11-25T13:42:21.934Z,9.80
2022-11-25T13:44:52.538Z,9.90
2022-11-25T13:47:37.653Z,9.80
2022-11-25T13:50:23.254Z,9.80
2022-11-25T13:53:06.142Z,9.90
2022-11-25T13:55:40.118Z,9.80
2022-11-25T13:58:13.089Z,9.90
2022-11-25T14:01:02.332Z,10.40
2022-11-25T14:06:02.780Z,9.90
2022-11-25T14:08:32.761Z,9.90
2022-11-25T14:11:27.917Z,9.90
2022-11-25T14:14:19.222Z,9.90
2022-11-25T14:17:15.719Z,9.90
2022-11-25T14:20:05.088Z,9.90
2022-11-25T14:23:10.603Z,9.90
2022-11-25T14:25:51.315Z,9.90
2022-11-25T14:28:29.206Z,9.90
2022-11-25T14:31:00.947Z,9.80
2022-11-25T14:33:35.208Z,9.80
2022-11-25T14:36:09.357Z,9.80
2022-11-25T14:38:47.090Z,9.80
2022-11-25T14:41:19.929Z,9.70
2022-11-25T14:43:58.459Z,9.70
2022-11-25T14:46:27.999Z,9.70
2022-11-25T14:49:00.283Z,9.70
2022-11-25T14:51:38.679Z,9.70
2022-11-25T14:54:10.049Z,9.60
2022-11-25T14:59:09.201Z,9.60
2022-11-25T15:01:38.048Z,9.50
2022-11-25T15:04:24.083Z,9.50
2022-11-25T15:06:57.816Z,9.50
2022-11-25T15:09:37.515Z,9.50
2022-11-25T15:12:12.515Z,9.50
2022-11-25T15:14:43.595Z,9.40
2022-11-25T15:17:33.251Z,9.30
2022-11-25T15:20:05.197Z,9.30
2022-11-25T15:25:13.018Z,9.20
2022-11-25T15:27:44.286Z,9.20
2022-11-25T15:30:20.245Z,9.30
2022-11-25T15:32:47.591Z,9.20
2022-11-25T15:35:23.240Z,9.30
2022-11-25T15:40:39.602Z,9.20
2022-11-25T15:43:20.752Z,9.20
2022-11-25T15:45:52.562Z,9.20
2022-11-25T15:48:36.749Z,9.10
2022-11-25T15:51:34.520Z,9.10
2022-11-25T15:54:18.039Z,9.10
2022-11-25T15:56:49.515Z,9.10
2022-11-25T15:59:48.915Z,9.00
2022-11-25T16:02:39.201Z,9.00
2022-11-25T16:05:12.184Z,8.90
2022-11-25T16:07:51.533Z,8.90
2022-11-25T16:10:23.575Z,8.90
2022-11-25T16:13:20.904Z,9.00
2022-11-25T16:16:10.069Z,9.00
2022-11-25T16:19:02.007Z,9.10
2022-11-25T16:21:40.764Z,9.10
2022-11-25T16:24:35.797Z,9.10
2022-11-25T16:29:48.156Z,9.10
2022-11-25T16:32:17.387Z,9.20
2022-11-25T16:44:37.250Z,9.00
2022-11-25T16:56:57.250Z,8.80
2022-11-25T16:59:32.373Z,8.80
2022-11-25T17:07:31.003Z,8.60
2022-11-25T17:12:26.751Z,8.60
2022-11-25T17:17:24.948Z,8.50
2022-11-25T17:19:53.416Z,8.50
2022-11-25T17:22:23.132Z,8.60
2022-11-25T17:27:28.307Z,8.60
2022-11-25T17:29:57.019Z,8.60
2022-11-25T17:37:23.724Z,8.60
2022-11-25T17:39:54.435Z,8.50
2022-11-25T17:42:30.822Z,8.50
2022-11-25T17:57:20.262Z,8.70
2022-11-25T18:02:20.248Z,8.70
2022-11-25T18:04:48.559Z,8.80
2022-11-25T18:12:23.249Z,8.90
2022-11-25T18:17:19.019Z,8.90
2022-11-25T18:27:27.032Z,8.90
2022-11-25T18:42:26.746Z,8.90
2022-11-25T18:44:55.828Z,8.90
2022-11-25T19:00:00.245Z,8.90
2022-11-25T19:05:16.185Z,9.00
2022-11-25T19:10:14.271Z,9.00
2022-11-25T19:12:44.631Z,9.00
2022-11-25T19:15:15.563Z,9.00
2022-11-25T19:17:46.920Z,8.90
2022-11-25T19:20:19.144Z,8.90
2022-11-25T19:25:14.527Z,9.50
2022-11-25T19:27:48.874Z,8.90
2022-11-25T19:30:22.510Z,8.90
2022-11-25T19:32:52.451Z,8.90
2022-11-25T19:35:36.622Z,9.00
2022-11-25T19:38:14.008Z,9.00
2022-11-25T19:45:36.753Z,9.00
2022-11-25T19:48:08.153Z,9.00
2022-11-25T19:50:38.986Z,9.00
2022-11-25T19:53:09.753Z,9.00
2022-11-25T20:00:34.598Z,9.00
2022-11-25T20:05:35.021Z,9.00
2022-11-25T20:10:32.112Z,9.00
2022-11-25T20:12:59.586Z,9.10
2022-11-25T20:17:58.118Z,9.10
2022-11-25T20:20:37.714Z,9.10
2022-11-25T20:23:22.832Z,9.10
2022-11-25T20:28:18.576Z,9.10
2022-11-25T20:31:01.151Z,9.10
2022-11-25T20:34:01.566Z,9.10
2022-11-25T20:36:32.215Z,9.10
2022-11-25T20:39:01.665Z,9.10
2022-11-25T20:41:30.353Z,9.10
2022-11-25T20:43:58.673Z,9.00
2022-11-25T20:46:29.972Z,9.10
2022-11-25T20:49:00.646Z,9.10
2022-11-25T20:51:28.135Z,9.00
2022-11-25T20:54:03.045Z,9.00
2022-11-25T21:06:32.128Z,9.10
2022-11-25T21:09:02.177Z,9.10
2022-11-25T21:21:37.466Z,9.00
2022-11-25T21:24:34.600Z,9.00
2022-11-25T21:27:06.892Z,9.00
2022-11-25T21:29:46.738Z,9.00
2022-11-25T21:32:22.281Z,9.00
2022-11-25T21:34:50.088Z,9.00
2022-11-25T21:37:32.096Z,9.00
2022-11-25T21:39:59.825Z,9.00
2022-11-25T21:42:27.736Z,9.00
2022-11-25T21:47:25.050Z,9.00
2022-11-25T21:49:52.544Z,9.00
2022-11-25T21:57:21.590Z,9.10
2022-11-25T21:59:49.348Z,9.00
2022-11-25T22:02:21.937Z,9.10
2022-11-25T22:07:16.609Z,9.10
2022-11-25T22:12:30.576Z,9.00
2022-11-25T22:14:59.387Z,9.00
2022-11-25T22:17:27.520Z,9.00
2022-11-25T22:27:24.260Z,9.10
2022-11-25T22:37:24.602Z,9.10
2022-11-25T22:42:27.007Z,9.10
2022-11-25T22:44:56.517Z,9.20
2022-11-25T22:47:27.833Z,9.20
2022-11-25T22:52:28.219Z,9.20
2022-11-25T23:02:26.674Z,9.20
2022-11-25T23:04:55.808Z,9.20
2022-11-25T23:07:24.063Z,9.20
2022-11-25T23:09:51.908Z,9.20
2022-11-25T23:12:20.133Z,9.20
2022-11-25T23:17:25.873Z,9.20
2022-11-25T23:19:53.439Z,9.20
2022-11-25T23:24:49.292Z,9.20
2022-11-25T23:29:44.983Z,9.10
2022-11-25T23:32:18.730Z,9.20
2022-11-25T23:37:14.283Z,9.20
2022-11-25T23:42:20.121Z,9.20
2022-11-25T23:47:19.799Z,9.10
2022-11-25T23:49:50.039Z,9.10
2022-11-25T23:52:23.054Z,9.10
2022-11-25T23:54:52.525Z,9.10
2022-11-25T23:57:30.458Z,9.10
